Oak View, California
Current Conditions -  °F | °C
As of 9:51 AM on Friday 24 Oct 2014 (Local Time) from KOXR Reporting Station
Clear Clear  
Wind Chill: 72°   Ceiling: Unl
Heat Index: 72°   Visibility: 10mi
Dew Point: 40°   Wind: 5mph
Humidity: 31%   Direction: 60°ENE
Pressure: 29.99"   Gusts: NA
Location:  34.4°N, 119.3°W
Report Text: KOXR 241651Z 06004KT 10SM CLR 22/04 A2999 RMK AO2 SLP155 T02220044
Loading
Personal Weather Stations






























Interactive Weather Map
Tropical Storm Tracking
New forecast layout! Learn more

10-Day Weather Forecast

Advertisements
Track Severe Weather on mobile